Capitol Logistics 627


KMIA
Miami International Airport
Miami, Florida, US
SKBO
El Nuevo Dorado International Airport
Bogota, , CO

Activity Log

Date Flight Route Aircraft Duration
02/21/2020 CPX627 EONNS2 EONNS A509 URSUS UA301 UCA UG430 OTU W46 ATANA ATANA2E B763 3h 33m
01/02/2020 CPX627 KMIA/08R EONNS2 EONNS A509 URSUS UG430 KILER UQ121 RNG ISVATISVAT2W SKBO/31L B763 3h 20m

Route Details

Aircraft Information
Primary: Boeing 767-300BDSF
Backup: Not Available
Route Data
Distance: 1356nm
Sched. Duration: 3h 04m
Avg. Duration: 3h 27m (+22m)
Times Flown: 2
Recm'd Route: EONNS2 EONNS A509 URSUS UA301 UCA UG430 OTU W46 ATANA ATANA2E
Planned Altitude: 37,000ft
Origin Wx: KMIA 312053Z 08012KT 10SM SCT025 SCT130 BKN250 29/23 A3003 RMK AO2 LTG DSNT N AND E SLP171 CB DSNT NW-NE-E MOV W T02890228 56006 $
Dest. Wx: SKBO 312100Z 25010KT 9999 BKN020 SCT200 17/11 A3024 NOSIG
Notes:

Financial History
Total Freight: 90,000lbs
Average Load: 45,000lbs/flt
Fuel Used: 62,751lbs
Avg. Fuel Used: 31,376lbs/flt
Fuel Expense: $77,184
Avg. Fuel Expense: $38,592
Avg. Fuel Cost: $1.23/lbs
Total Gross Income: $179,100
Pilot Pay: $248
Total Expenses: $19,447
Total Revenue: $81,441
Average Revenue: $89,550.00